createdAt,value
2023-11-13T00:00:31.893Z,21.10
2023-11-13T00:04:34.334Z,18.17
2023-11-13T00:08:36.871Z,18.30
2023-11-13T00:12:39.255Z,14.05
2023-11-13T00:16:41.590Z,13.20
2023-11-13T00:20:46.651Z,13.35
2023-11-13T00:24:49.144Z,10.45
2023-11-13T00:28:51.619Z,18.40
2023-11-13T00:32:53.911Z,11.48
2023-11-13T00:36:56.179Z,12.73
2023-11-13T00:41:03.101Z,13.45
2023-11-13T00:45:07.858Z,14.43
2023-11-13T00:49:10.518Z,14.00
2023-11-13T00:53:12.886Z,16.55
2023-11-13T00:57:15.659Z,17.48
2023-11-13T01:01:18.515Z,17.88
2023-11-13T01:05:22.116Z,18.80
2023-11-13T01:09:24.556Z,16.83
2023-11-13T01:13:26.858Z,15.40
2023-11-13T01:17:29.152Z,23.05
2023-11-13T01:21:32.526Z,16.25
2023-11-13T01:25:35.767Z,16.15
2023-11-13T01:29:37.930Z,19.40
2023-11-13T01:33:40.234Z,25.00
2023-11-13T01:37:42.595Z,22.55
2023-11-13T01:41:45.252Z,20.65
2023-11-13T01:45:53.424Z,24.65
2023-11-13T01:49:56.457Z,25.58
2023-11-13T01:53:59.934Z,25.05
2023-11-13T01:58:03.344Z,20.70
2023-11-13T02:02:05.998Z,17.40
2023-11-13T02:06:12.059Z,19.63
2023-11-13T02:10:18.927Z,22.92
2023-11-13T02:14:22.775Z,26.20
2023-11-13T02:18:25.069Z,17.98
2023-11-13T02:22:27.374Z,19.25
2023-11-13T02:26:29.795Z,19.30
2023-11-13T02:30:37.865Z,23.10
2023-11-13T02:34:40.079Z,34.22
2023-11-13T02:38:42.795Z,36.00
2023-11-13T02:42:45.235Z,33.92
2023-11-13T02:46:48.825Z,37.50
2023-11-13T02:50:53.935Z,41.05
2023-11-13T02:54:56.677Z,49.50
2023-11-13T02:59:00.006Z,41.33
2023-11-13T03:03:02.793Z,56.72
2023-11-13T03:07:05.373Z,36.33
2023-11-13T03:11:07.485Z,34.10
2023-11-13T03:15:12.681Z,33.30
2023-11-13T03:19:14.734Z,32.03
2023-11-13T03:23:16.802Z,32.03
2023-11-13T03:27:18.833Z,41.17
2023-11-13T03:31:21.697Z,30.95
2023-11-13T03:35:23.724Z,31.85
2023-11-13T03:39:25.764Z,37.53
2023-11-13T03:43:28.068Z,30.35
2023-11-13T03:47:32.379Z,29.25
2023-11-13T03:51:35.932Z,44.10
2023-11-13T03:55:37.964Z,47.55
2023-11-13T03:59:40.038Z,49.58
2023-11-13T04:03:42.519Z,77.35
2023-11-13T04:07:45.187Z,40.65
2023-11-13T04:11:47.894Z,107.68
2023-11-13T04:15:50.511Z,66.10
2023-11-13T04:19:52.719Z,57.25
2023-11-13T04:23:54.687Z,56.67
2023-11-13T04:27:58.469Z,103.85
2023-11-13T04:32:00.515Z,71.50
2023-11-13T04:36:03.231Z,60.47
2023-11-13T04:40:06.491Z,33.25
2023-11-13T04:44:09.285Z,33.30
2023-11-13T04:48:11.343Z,33.05
2023-11-13T04:52:13.399Z,39.22
2023-11-13T04:56:16.033Z,45.65
2023-11-13T05:00:18.563Z,43.83
2023-11-13T05:04:20.727Z,31.67
2023-11-13T05:08:22.877Z,23.58
2023-11-13T05:12:24.918Z,30.42
2023-11-13T05:16:29.223Z,29.23
2023-11-13T05:20:31.539Z,27.67
2023-11-13T05:24:33.726Z,23.00
2023-11-13T05:28:36.005Z,24.00
2023-11-13T05:32:38.007Z,26.95
2023-11-13T05:36:39.939Z,32.03
2023-11-13T05:40:41.917Z,21.77
2023-11-13T05:44:45.342Z,23.45
2023-11-13T05:48:47.365Z,26.80
2023-11-13T05:52:49.410Z,30.10
2023-11-13T05:56:51.758Z,25.02
2023-11-13T06:00:53.806Z,26.48
2023-11-13T06:04:55.893Z,30.00
2023-11-13T06:08:57.987Z,22.02
2023-11-13T06:13:00.090Z,23.58
2023-11-13T06:17:03.520Z,18.35
2023-11-13T06:21:05.843Z,22.10
2023-11-13T06:25:08.758Z,20.33
2023-11-13T06:29:12.133Z,20.50
2023-11-13T06:33:14.156Z,20.70
2023-11-13T06:37:17.023Z,21.45
2023-11-13T06:41:19.147Z,25.55
2023-11-13T06:45:21.354Z,25.95
2023-11-13T06:49:23.471Z,25.85
2023-11-13T06:53:27.102Z,23.48
2023-11-13T06:57:29.144Z,27.43
2023-11-13T07:01:39.066Z,24.27
2023-11-13T07:05:41.162Z,25.80
2023-11-13T07:09:43.129Z,36.03
2023-11-13T07:13:45.464Z,31.92
2023-11-13T07:17:47.634Z,29.85
2023-11-13T07:21:50.335Z,36.47
2023-11-13T07:25:53.688Z,35.33
2023-11-13T07:29:57.725Z,32.00
2023-11-13T07:34:00.067Z,27.35
2023-11-13T07:38:02.445Z,21.00
2023-11-13T07:42:05.027Z,24.67
2023-11-13T07:46:10.470Z,24.25
2023-11-13T07:50:13.397Z,23.23
2023-11-13T07:54:16.025Z,23.60
2023-11-13T07:58:18.064Z,27.23
2023-11-13T08:02:21.436Z,22.13
2023-11-13T08:06:23.530Z,20.42
2023-11-13T08:10:27.527Z,19.17
2023-11-13T08:14:31.947Z,16.92
2023-11-13T08:18:34.152Z,18.42
2023-11-13T08:22:37.339Z,13.57
2023-11-13T08:26:39.823Z,13.18
2023-11-13T08:30:47.972Z,15.48
2023-11-13T08:34:50.192Z,21.65
2023-11-13T08:38:53.660Z,17.08
2023-11-13T08:42:57.603Z,14.00
2023-11-13T08:47:00.722Z,13.52
2023-11-13T08:51:02.900Z,16.20
2023-11-13T08:55:05.217Z,14.30
2023-11-13T08:59:10.963Z,16.05
2023-11-13T09:03:13.259Z,13.85
2023-11-13T09:07:18.528Z,11.40
2023-11-13T09:11:22.521Z,11.73
2023-11-13T09:15:24.611Z,13.93
2023-11-13T09:19:29.449Z,17.67
2023-11-13T09:23:31.470Z,12.25
2023-11-13T09:27:34.101Z,13.68
2023-11-13T09:31:36.453Z,14.55
2023-11-13T09:35:38.855Z,16.13
2023-11-13T09:39:43.886Z,15.75
2023-11-13T09:43:47.179Z,15.73
2023-11-13T09:47:50.900Z,16.70
2023-11-13T09:51:55.231Z,17.70
2023-11-13T09:55:57.767Z,16.45
2023-11-13T10:00:01.162Z,15.82
2023-11-13T10:04:06.582Z,15.75
2023-11-13T10:08:09.058Z,13.35
2023-11-13T10:12:13.638Z,14.35
2023-11-13T10:16:18.184Z,16.05
2023-11-13T10:20:21.791Z,16.02
2023-11-13T10:24:33.947Z,13.05
2023-11-13T10:28:43.633Z,14.88
2023-11-13T10:32:46.608Z,12.10
2023-11-13T10:37:11.808Z,13.02
2023-11-13T10:41:20.918Z,12.48
2023-11-13T10:45:23.596Z,12.68
2023-11-13T10:49:26.558Z,10.13
2023-11-13T10:53:32.688Z,9.63
2023-11-13T10:57:34.860Z,11.32
2023-11-13T11:01:39.992Z,10.18
2023-11-13T11:05:43.996Z,11.25
2023-11-13T11:09:46.721Z,9.82
2023-11-13T11:14:10.972Z,7.97
2023-11-13T11:18:22.677Z,8.95
2023-11-13T11:22:46.998Z,6.07
2023-11-13T11:27:00.070Z,8.23
2023-11-13T11:31:05.838Z,8.43
2023-11-13T11:35:08.681Z,9.38
2023-11-13T11:39:22.989Z,9.98
2023-11-13T11:43:34.743Z,6.90
2023-11-13T11:47:37.800Z,8.05
2023-11-13T11:51:40.173Z,5.97
2023-11-13T11:55:42.431Z,6.75
2023-11-13T11:59:44.903Z,6.53
2023-11-13T12:03:47.185Z,7.82
2023-11-13T12:07:53.761Z,6.88
2023-11-13T12:11:56.066Z,9.13
2023-11-13T12:15:59.941Z,8.65
2023-11-13T12:20:09.811Z,8.90
2023-11-13T12:24:20.707Z,7.90
2023-11-13T12:28:24.992Z,9.57
2023-11-13T12:32:29.408Z,7.60
2023-11-13T12:40:35.628Z,10.57
2023-11-13T12:44:38.987Z,8.83
2023-11-13T12:48:42.722Z,7.35
2023-11-13T12:56:50.003Z,9.23
2023-11-13T13:00:52.861Z,8.57
2023-11-13T13:04:59.544Z,10.30
2023-11-13T13:09:03.677Z,13.57
2023-11-13T13:13:06.615Z,12.27
2023-11-13T13:17:09.077Z,8.32
2023-11-13T13:21:11.339Z,10.35
2023-11-13T13:25:13.460Z,21.67
2023-11-13T13:29:16.579Z,8.57
2023-11-13T13:33:18.872Z,10.70
2023-11-13T13:37:24.890Z,9.25
2023-11-13T13:41:27.946Z,13.57
2023-11-13T13:45:33.030Z,8.02
2023-11-13T13:49:39.049Z,8.57
2023-11-13T13:53:47.780Z,9.85
2023-11-13T13:57:54.951Z,10.88
2023-11-13T14:02:02.408Z,10.25
2023-11-13T14:06:15.357Z,9.13
2023-11-13T14:10:19.926Z,14.50
2023-11-13T14:14:22.881Z,12.90
2023-11-13T14:18:26.518Z,15.23
2023-11-13T14:22:28.747Z,13.80
2023-11-13T14:26:31.437Z,15.35
2023-11-13T14:30:33.532Z,11.93
2023-11-13T14:34:35.942Z,14.70
2023-11-13T14:38:39.192Z,17.27
2023-11-13T14:42:43.636Z,15.25
2023-11-13T14:46:45.841Z,12.15
2023-11-13T14:50:48.753Z,13.18
2023-11-13T14:54:50.988Z,11.93
2023-11-13T14:58:53.655Z,11.93
2023-11-13T15:02:55.906Z,11.23
2023-11-13T15:06:58.036Z,11.32
2023-11-13T15:11:00.101Z,15.13
2023-11-13T15:15:02.643Z,10.65
2023-11-13T15:19:05.087Z,11.05
2023-11-13T15:23:20.376Z,13.82
2023-11-13T15:27:30.568Z,17.73
2023-11-13T15:31:32.714Z,11.63
2023-11-13T15:35:36.723Z,16.95
2023-11-13T15:39:42.237Z,14.00
2023-11-13T15:43:44.327Z,12.00
2023-11-13T15:47:46.928Z,16.45
2023-11-13T15:51:49.666Z,13.73
2023-11-13T15:55:52.020Z,14.50
2023-11-13T15:59:57.745Z,16.50
2023-11-13T16:04:03.448Z,17.02
2023-11-13T16:08:11.593Z,16.92
2023-11-13T16:12:18.191Z,15.52
2023-11-13T16:16:23.745Z,18.67
2023-11-13T16:20:30.002Z,30.98
2023-11-13T16:24:36.389Z,29.38
2023-11-13T16:28:41.314Z,25.55
2023-11-13T16:32:44.067Z,21.02
2023-11-13T16:36:46.163Z,20.45
2023-11-13T16:40:48.999Z,23.92
2023-11-13T16:44:51.058Z,27.45
2023-11-13T16:48:53.317Z,29.65
2023-11-13T16:52:55.500Z,21.50
2023-11-13T16:56:58.081Z,21.42
2023-11-13T17:01:00.159Z,29.02
2023-11-13T17:05:02.486Z,32.40
2023-11-13T17:09:04.798Z,27.00
2023-11-13T17:13:07.586Z,24.45
2023-11-13T17:17:10.064Z,18.27
2023-11-13T17:21:13.929Z,21.38
2023-11-13T17:25:15.950Z,26.45
2023-11-13T17:29:18.152Z,24.45
2023-11-13T17:33:23.464Z,22.05
2023-11-13T17:37:25.483Z,28.63
2023-11-13T17:41:27.616Z,22.73
2023-11-13T17:45:29.642Z,22.85
2023-11-13T17:49:31.873Z,26.50
2023-11-13T17:53:33.936Z,32.75
2023-11-13T17:57:40.228Z,28.90
2023-11-13T18:01:42.282Z,33.17
2023-11-13T18:05:44.383Z,30.70
2023-11-13T18:09:49.857Z,30.30
2023-11-13T18:13:52.981Z,30.60
2023-11-13T18:17:55.384Z,27.55
2023-11-13T18:21:59.636Z,26.63
2023-11-13T18:26:01.988Z,30.35
2023-11-13T18:30:06.264Z,35.22
2023-11-13T18:34:08.675Z,26.55
2023-11-13T18:38:11.259Z,36.65
2023-11-13T18:42:13.920Z,29.52
2023-11-13T18:46:15.950Z,37.97
2023-11-13T18:50:18.247Z,31.23
2023-11-13T18:54:20.818Z,36.75
2023-11-13T18:58:23.194Z,41.10
2023-11-13T19:02:25.625Z,52.85
2023-11-13T19:06:30.846Z,73.35
2023-11-13T19:10:35.194Z,56.25
2023-11-13T19:14:38.303Z,28.20
2023-11-13T19:18:40.436Z,31.77
2023-11-13T19:22:46.507Z,30.80
2023-11-13T19:26:51.859Z,24.73
2023-11-13T19:30:54.522Z,34.05
2023-11-13T19:34:59.375Z,35.83
2023-11-13T19:39:01.464Z,31.17
2023-11-13T19:43:04.628Z,30.75
2023-11-13T19:47:08.145Z,35.83
2023-11-13T19:51:12.584Z,30.05
2023-11-13T19:59:17.035Z,35.13
2023-11-13T20:03:22.150Z,32.70
2023-11-13T20:07:24.753Z,30.48
2023-11-13T20:11:26.816Z,31.73
2023-11-13T20:15:29.382Z,37.95
2023-11-13T20:19:31.414Z,29.67
2023-11-13T20:23:33.413Z,29.65
2023-11-13T20:27:36.306Z,40.13
2023-11-13T20:31:38.704Z,37.50
2023-11-13T20:35:43.173Z,43.92
2023-11-13T20:43:47.284Z,36.45
2023-11-13T20:47:49.633Z,32.88
2023-11-13T20:51:53.213Z,32.30
2023-11-13T20:55:55.677Z,39.13
2023-11-13T20:59:58.426Z,33.90
2023-11-13T21:04:00.562Z,33.78
2023-11-13T21:08:03.332Z,37.38
2023-11-13T21:12:06.142Z,41.72
2023-11-13T21:16:08.756Z,43.50
2023-11-13T21:20:12.419Z,39.05
2023-11-13T21:24:16.112Z,41.30
2023-11-13T21:28:18.116Z,41.70
2023-11-13T21:32:22.183Z,37.17
2023-11-13T21:36:24.720Z,40.90
2023-11-13T21:40:27.628Z,32.28
2023-11-13T21:44:29.766Z,32.08
2023-11-13T21:48:32.132Z,32.25
2023-11-13T21:52:34.373Z,31.88
2023-11-13T21:56:38.912Z,32.08
2023-11-13T22:00:41.276Z,24.40
2023-11-13T22:04:43.389Z,27.83
2023-11-13T22:08:45.625Z,32.35
2023-11-13T22:12:47.739Z,34.53
2023-11-13T22:16:49.849Z,32.42
2023-11-13T22:20:52.031Z,37.30
2023-11-13T22:24:54.628Z,27.83
2023-11-13T22:28:57.615Z,30.25
2023-11-13T22:32:59.714Z,29.40
2023-11-13T22:37:01.800Z,36.33
2023-11-13T22:41:06.332Z,37.90
2023-11-13T22:45:09.127Z,32.97
2023-11-13T22:49:11.377Z,32.25
2023-11-13T22:53:14.102Z,30.95
2023-11-13T22:57:16.615Z,27.27
2023-11-13T23:01:20.345Z,22.58
2023-11-13T23:05:24.125Z,27.03
2023-11-13T23:09:26.099Z,31.67
2023-11-13T23:13:28.192Z,30.65
2023-11-13T23:17:30.254Z,29.67
2023-11-13T23:21:32.384Z,20.45
2023-11-13T23:25:34.584Z,33.40
2023-11-13T23:29:36.583Z,26.20
2023-11-13T23:33:38.700Z,21.70
2023-11-13T23:37:40.753Z,27.40
2023-11-13T23:41:43.176Z,23.63
2023-11-13T23:45:47.724Z,23.70
2023-11-13T23:49:51.048Z,22.67
2023-11-13T23:53:53.841Z,19.25
2023-11-13T23:57:56.033Z,22.05
